Time;durP1;ratioP1;P1;durP2;ratioP2;P2;SDS_P1;SDS_P2;PMS_P1;PMS_P2;Temp;Humidity;BMP_temperature;BMP_pressure;BME280_temperature;BME280_humidity;BME280_pressure;Samples;Min_cycle;Max_cycle;Signal;HPM_P1;HPM_P2
2023/07/13 00:00:10;;;;;;;;;;;20.10;66.60;;;15.97;100.00;95642.72;4980871;28;20031;-54
2023/07/13 00:02:36;;;;;;;;;;;20.10;66.50;;;15.97;100.00;95640.03;4990140;28;19918;-50
2023/07/13 00:05:03;;;;;;;;;;;20.10;66.50;;;15.93;100.00;95641.75;4992415;28;19921;-53
2023/07/13 00:07:31;;;;;;;;;;;20.00;66.40;;;15.92;100.00;95637.47;4978989;28;19909;-52
2023/07/13 00:09:57;;;;;;;;;;;20.00;66.40;;;15.89;100.00;95638.84;4992011;28;19920;-54
2023/07/13 00:12:32;;;;;;;;;;;20.00;66.50;;;15.90;100.00;95629.69;4991568;28;19986;-56
2023/07/13 00:15:02;;;;;;;;;;;20.00;66.60;;;15.87;100.00;95621.44;4990592;28;19913;-51
2023/07/13 00:17:29;;;;;;;;;;;20.00;66.60;;;15.85;100.00;95610.97;4992155;28;19913;-53
2023/07/13 00:19:57;;;;;;;;;;;20.00;66.60;;;15.86;100.00;95614.47;4981186;28;20388;-53
2023/07/13 00:22:25;;;;;;;;;;;19.90;66.50;;;15.80;100.00;95607.63;4979421;28;19955;-52
2023/07/13 00:24:53;;;;;;;;;;;19.90;66.50;;;15.80;100.00;95611.09;4986056;28;19913;-50
2023/07/13 00:27:19;;;;;;;;;;;19.90;66.50;;;15.74;100.00;95606.91;5009838;28;20307;-53
2023/07/13 00:29:45;;;;;;;;;;;19.80;66.50;;;15.72;100.00;95604.50;4985111;28;19920;-52
2023/07/13 00:32:11;;;;;;;;;;;19.80;66.50;;;15.67;100.00;95603.81;4974193;28;19910;-54
2023/07/13 00:34:38;;;;;;;;;;;19.80;66.60;;;15.64;100.00;95596.31;4985679;28;19909;-48
2023/07/13 00:37:06;;;;;;;;;;;19.70;66.60;;;15.63;100.00;95597.41;4980534;28;19909;-48
2023/07/13 00:39:33;;;;;;;;;;;19.70;66.60;;;15.55;100.00;95596.19;4989221;28;20296;-53
2023/07/13 00:42:01;;;;;;;;;;;19.70;66.70;;;15.54;100.00;95605.31;4979844;28;19933;-53
2023/07/13 00:44:27;;;;;;;;;;;19.60;66.70;;;15.59;100.00;95599.09;4983106;28;20441;-50
2023/07/13 00:46:53;;;;;;;;;;;19.60;66.80;;;15.56;100.00;95602.38;5001612;28;19909;-50
2023/07/13 00:49:24;;;;;;;;;;;19.60;66.80;;;15.55;100.00;95601.56;4978503;28;19910;-51
2023/07/13 00:51:53;;;;;;;;;;;19.60;66.90;;;15.55;100.00;95598.88;4988815;28;20372;-51
2023/07/13 00:54:35;;;;;;;;;;;19.60;67.00;;;15.54;100.00;95601.84;4988264;28;20436;-53
2023/07/13 00:57:07;;;;;;;;;;;19.60;66.90;;;15.53;100.00;95602.94;4983442;28;20435;-55
2023/07/13 00:59:36;;;;;;;;;;;19.60;67.00;;;15.52;100.00;95604.06;4978216;28;19913;-52
2023/07/13 01:02:03;;;;;;;;;;;19.60;66.90;;;15.50;100.00;95601.66;4984465;28;19917;-51
2023/07/13 01:04:30;;;;;;;;;;;19.60;67.00;;;15.51;100.00;95600.53;4995744;28;19910;-54
2023/07/13 01:06:58;;;;;;;;;;;19.60;67.00;;;15.49;100.00;95598.16;4982384;28;19933;-53
2023/07/13 01:09:26;;;;;;;;;;;19.60;67.00;;;15.41;100.00;95590.78;4994419;28;19909;-53
2023/07/13 01:11:52;;;;;;;;;;;19.60;66.90;;;15.39;100.00;95586.81;4989067;28;19910;-53
2023/07/13 01:14:18;;;;;;;;;;;19.50;66.90;;;15.36;100.00;95577.47;4982685;28;19909;-54
2023/07/13 01:16:47;;;;;;;;;;;19.50;66.90;;;15.36;100.00;95580.16;4994271;28;20017;-53
2023/07/13 01:19:43;;;;;;;;;;;19.50;67.00;;;15.32;100.00;95583.72;4983703;28;19916;-52
2023/07/13 01:22:17;;;;;;;;;;;19.50;67.00;;;15.31;100.00;95590.16;5006612;28;19918;-53
2023/07/13 01:24:47;;;;;;;;;;;19.40;67.00;;;15.28;100.00;95581.59;4988741;28;20362;-55
2023/07/13 01:27:17;;;;;;;;;;;19.40;67.10;;;15.28;100.00;95583.50;4997808;28;19909;-53
2023/07/13 01:29:47;;;;;;;;;;;19.40;67.20;;;15.29;100.00;95585.09;5015523;28;20379;-52
2023/07/13 01:32:23;;;;;;;;;;;19.40;67.20;;;15.27;100.00;95587.28;4993472;28;19913;-53
2023/07/13 01:34:53;;;;;;;;;;;19.40;67.20;;;15.25;100.00;95592.13;5007534;28;19909;-52
2023/07/13 01:37:21;;;;;;;;;;;19.40;67.20;;;15.25;100.00;95592.13;4995197;28;19909;-53
2023/07/13 01:39:47;;;;;;;;;;;19.40;67.20;;;15.23;100.00;95599.66;4993906;28;20007;-50
2023/07/13 01:42:14;;;;;;;;;;;19.40;67.20;;;15.21;100.00;95602.66;4994418;28;19909;-53
2023/07/13 01:44:39;;;;;;;;;;;19.40;67.20;;;15.21;100.00;95618.75;4994040;28;19916;-53
2023/07/13 01:47:05;;;;;;;;;;;19.40;67.30;;;15.22;100.00;95612.28;4994961;28;19914;-54
2023/07/13 01:49:32;;;;;;;;;;;19.30;67.20;;;15.22;100.00;95612.28;4994854;28;19958;-53
2023/07/13 01:51:57;;;;;;;;;;;19.30;67.20;;;15.24;100.00;95615.50;4993809;28;19909;-54
2023/07/13 01:54:23;;;;;;;;;;;19.30;67.30;;;15.25;100.00;95610.91;4994541;28;20326;-51
2023/07/13 01:56:49;;;;;;;;;;;19.30;67.30;;;15.24;100.00;95610.13;4993766;28;19913;-54
2023/07/13 01:59:15;;;;;;;;;;;19.40;67.40;;;15.24;100.00;95612.03;4994579;28;19913;-51
2023/07/13 02:01:40;;;;;;;;;;;19.40;67.50;;;15.23;100.00;95615.78;4993275;28;19921;-50
2023/07/13 02:04:06;;;;;;;;;;;19.40;67.50;;;15.24;100.00;95615.50;5000741;28;19909;-49
2023/07/13 02:06:32;;;;;;;;;;;19.30;67.30;;;15.25;100.00;95627.81;4994609;28;19917;-52
2023/07/13 02:08:59;;;;;;;;;;;19.40;67.40;;;15.25;100.00;95621.66;4993683;28;19910;-55
2023/07/13 02:11:25;;;;;;;;;;;19.40;67.50;;;15.21;100.00;95612.59;4992651;28;19967;-54
2023/07/13 02:13:51;;;;;;;;;;;19.40;67.40;;;15.21;100.00;95617.97;4993481;28;19917;-53
2023/07/13 02:16:17;;;;;;;;;;;19.40;67.30;;;15.22;100.00;95623.03;4994309;28;19921;-55
2023/07/13 02:18:43;;;;;;;;;;;19.40;67.40;;;15.22;100.00;95624.91;4994206;28;20257;-53
2023/07/13 02:21:09;;;;;;;;;;;19.40;67.40;;;15.22;100.00;95616.88;4992847;28;19913;-51
2023/07/13 02:23:35;;;;;;;;;;;19.40;67.40;;;15.20;100.00;95611.81;4994233;28;19937;-55
2023/07/13 02:26:03;;;;;;;;;;;19.40;67.40;;;15.19;100.00;95620.94;5008309;28;20008;-52
2023/07/13 02:28:29;;;;;;;;;;;19.40;67.50;;;15.19;100.00;95628.19;4993934;28;19932;-53
2023/07/13 02:30:55;;;;;;;;;;;19.40;68.20;;;15.20;100.00;95617.19;4992304;28;19910;-55
2023/07/13 02:33:21;;;;;;;;;;;19.40;67.40;;;15.22;100.00;95611.50;4993085;28;20272;-52
2023/07/13 02:35:46;;;;;;;;;;;19.40;67.40;;;15.23;100.00;95605.03;4994089;28;19910;-52
2023/07/13 02:38:12;;;;;;;;;;;19.40;67.40;;;15.22;100.00;95611.50;4993287;28;20569;-53
2023/07/13 02:40:38;;;;;;;;;;;19.40;67.50;;;15.23;100.00;95610.41;4993929;28;19913;-56
2023/07/13 02:43:04;;;;;;;;;;;19.40;68.30;;;15.24;100.00;95614.69;4993652;28;19909;-56
2023/07/13 02:45:29;;;;;;;;;;;19.40;67.50;;;15.26;100.00;95601.78;4993134;28;19909;-54
2023/07/13 02:47:55;;;;;;;;;;;19.40;67.60;;;15.27;100.00;95611.44;4994086;28;20338;-49
2023/07/13 02:50:21;;;;;;;;;;;19.40;67.60;;;15.28;100.00;95616.50;4987150;28;20392;-55
2023/07/13 02:52:47;;;;;;;;;;;19.40;67.60;;;15.26;100.00;95607.97;4986956;28;20392;-55
2023/07/13 02:55:12;;;;;;;;;;;19.40;67.70;;;15.28;100.00;95600.41;4984112;28;19909;-52
2023/07/13 02:57:38;;;;;;;;;;;19.40;67.80;;;15.31;100.00;95601.69;4992527;28;20365;-50
2023/07/13 03:00:05;;;;;;;;;;;19.40;67.80;;;15.34;100.00;95594.94;4994006;28;20078;-51
2023/07/13 03:02:33;;;;;;;;;;;19.40;67.80;;;15.36;100.00;95592.78;4992067;28;20307;-53
2023/07/13 03:04:59;;;;;;;;;;;19.40;67.80;;;15.35;100.00;95594.66;4994385;28;19956;-51
2023/07/13 03:07:25;;;;;;;;;;;19.40;67.80;;;15.33;100.00;95593.38;4993307;28;20575;-50
2023/07/13 03:09:56;;;;;;;;;;;19.40;67.80;;;15.37;100.00;95597.84;4992189;28;20280;-50
2023/07/13 03:12:22;;;;;;;;;;;19.40;67.80;;;15.39;100.00;95602.94;4992644;28;19916;-49
2023/07/13 03:14:48;;;;;;;;;;;19.40;67.90;;;15.38;100.00;95604.00;4992427;28;19909;-55
2023/07/13 03:17:13;;;;;;;;;;;19.40;68.70;;;15.40;100.00;95610.66;4993205;28;20283;-55
2023/07/13 03:19:39;;;;;;;;;;;19.50;68.00;;;15.40;100.00;95608.00;4992921;28;20387;-51
2023/07/13 03:22:05;;;;;;;;;;;19.50;68.70;;;15.40;100.00;95604.50;4992224;28;19914;-50
2023/07/13 03:24:33;;;;;;;;;;;19.50;67.90;;;15.39;100.00;95614.47;4992807;28;19966;-50
2023/07/13 03:27:02;;;;;;;;;;;19.50;67.90;;;15.39;100.00;95622.50;4992146;28;20319;-51
2023/07/13 03:29:27;;;;;;;;;;;19.50;67.80;;;15.40;100.00;95616.03;4992994;28;20276;-49
2023/07/13 03:31:53;;;;;;;;;;;19.50;67.80;;;15.39;100.00;95619.81;4991634;28;19909;-48
2023/07/13 03:34:19;;;;;;;;;;;19.50;67.80;;;15.40;100.00;95620.63;4993537;28;19917;-48
2023/07/13 03:36:45;;;;;;;;;;;19.50;67.80;;;15.38;100.00;95622.78;4992734;28;19913;-51
2023/07/13 03:39:11;;;;;;;;;;;19.50;67.80;;;15.37;100.00;95616.63;4992237;28;20363;-51
2023/07/13 03:41:37;;;;;;;;;;;19.50;67.80;;;15.38;100.00;95618.22;4992188;28;20067;-50
2023/07/13 03:44:03;;;;;;;;;;;19.50;67.80;;;15.40;100.00;95621.41;4992161;28;20379;-56
2023/07/13 03:46:29;;;;;;;;;;;19.50;67.90;;;15.42;100.00;95618.44;4992623;28;19956;-54
2023/07/13 03:48:55;;;;;;;;;;;19.50;67.90;;;15.42;100.00;95619.25;4992725;28;19913;-52
2023/07/13 03:51:21;;;;;;;;;;;19.60;68.00;;;15.42;100.00;95624.59;4990890;28;19910;-55
2023/07/13 03:53:48;;;;;;;;;;;19.60;68.00;;;15.43;100.00;95631.56;4992489;28;19917;-56
2023/07/13 03:56:17;;;;;;;;;;;19.60;68.00;;;15.40;100.00;95616.03;4989997;28;20012;-50
2023/07/13 03:58:49;;;;;;;;;;;19.60;67.90;;;15.43;100.00;95620.03;4992767;28;19998;-48
2023/07/13 04:01:21;;;;;;;;;;;19.60;67.90;;;15.45;100.00;95615.97;5003843;23;27782;-51
2023/07/13 04:03:47;;;;;;;;;;;19.60;67.90;;;15.45;100.00;95615.97;4988902;28;19928;-53
2023/07/13 04:06:21;;;;;;;;;;;19.60;67.90;;;15.46;100.00;95614.88;4991978;28;19909;-51
2023/07/13 04:08:54;;;;;;;;;;;19.60;67.90;;;15.44;100.00;95618.94;4991250;28;20329;-49
2023/07/13 04:11:22;;;;;;;;;;;19.60;67.90;;;15.48;100.00;95620.75;4991910;28;19909;-55
2023/07/13 04:13:49;;;;;;;;;;;19.60;67.80;;;15.52;100.00;95628.22;4989898;28;20260;-54
2023/07/13 04:16:17;;;;;;;;;;;19.70;67.90;;;15.54;100.00;95634.06;4992799;28;20383;-50
2023/07/13 04:18:44;;;;;;;;;;;19.70;67.90;;;15.57;100.00;95625.41;4983321;28;19932;-50
2023/07/13 04:21:11;;;;;;;;;;;19.80;68.00;;;15.60;100.00;95635.56;4991105;28;19914;-53
2023/07/13 04:23:38;;;;;;;;;;;19.80;67.90;;;15.61;100.00;95635.28;4991788;28;19963;-51
2023/07/13 04:26:05;;;;;;;;;;;19.80;67.90;;;15.65;100.00;95638.19;4991772;28;19913;-49
2023/07/13 04:28:31;;;;;;;;;;;19.90;68.00;;;15.71;100.00;95635.13;4992732;28;19949;-49
2023/07/13 04:30:57;;;;;;;;;;;19.90;67.90;;;15.76;100.00;95638.81;4984967;28;20003;-51
2023/07/13 04:33:23;;;;;;;;;;;20.00;67.90;;;15.81;100.00;95647.59;4986030;28;19914;-49
2023/07/13 04:35:56;;;;;;;;;;;20.10;67.90;;;15.86;100.00;95641.34;4992029;28;19913;-50
2023/07/13 04:38:28;;;;;;;;;;;20.10;67.90;;;15.92;100.00;95640.94;4974039;28;19910;-53
2023/07/13 04:40:57;;;;;;;;;;;20.20;67.80;;;15.94;100.00;95638.75;4985605;28;19918;-54
2023/07/13 04:43:24;;;;;;;;;;;20.20;67.70;;;15.96;100.00;95652.69;4992633;28;19916;-55
2023/07/13 04:45:54;;;;;;;;;;;20.30;67.70;;;15.98;100.00;95656.97;4991647;28;19952;-53
2023/07/13 04:48:21;;;;;;;;;;;20.30;67.60;;;15.98;100.00;95655.06;4983540;28;20292;-54
2023/07/13 04:50:47;;;;;;;;;;;20.30;67.60;;;16.01;100.00;95653.69;4991720;28;19909;-51
2023/07/13 04:53:14;;;;;;;;;;;20.30;67.60;;;16.05;100.00;95660.06;4992421;28;20000;-53
2023/07/13 04:55:40;;;;;;;;;;;20.40;67.50;;;16.10;100.00;95665.34;4991562;28;19910;-50
2023/07/13 04:58:06;;;;;;;;;;;20.50;67.50;;;16.10;100.00;95666.13;4992525;28;19984;-53
2023/07/13 05:00:32;;;;;;;;;;;20.50;67.40;;;16.11;100.00;95670.44;4992478;28;19967;-55
2023/07/13 05:03:00;;;;;;;;;;;20.60;67.40;;;16.13;100.00;95664.75;4990115;28;19921;-48
2023/07/13 05:05:27;;;;;;;;;;;20.60;67.40;;;16.17;100.00;95671.94;4987272;28;20008;-51
2023/07/13 05:07:54;;;;;;;;;;;20.60;67.40;;;16.19;100.00;95680.47;4991699;28;20371;-49
2023/07/13 05:10:21;;;;;;;;;;;20.60;67.40;;;16.22;100.00;95683.66;4992494;28;19944;-50
2023/07/13 05:12:46;;;;;;;;;;;20.60;67.40;;;16.25;100.00;95691.13;4992304;28;19956;-49
2023/07/13 05:15:12;;;;;;;;;;;20.70;67.40;;;16.28;100.00;95695.91;4987477;28;19913;-51
2023/07/13 05:17:41;;;;;;;;;;;20.60;67.40;;;16.31;100.00;95693.41;4992247;28;19916;-48
2023/07/13 05:20:09;;;;;;;;;;;20.70;67.40;;;16.34;100.00;95689.34;4988500;28;20391;-51
2023/07/13 05:22:35;;;;;;;;;;;20.80;67.40;;;16.33;100.00;95693.13;4988305;28;19922;-49
2023/07/13 05:25:06;;;;;;;;;;;20.80;67.30;;;16.36;100.00;95687.97;4991951;28;20430;-47
2023/07/13 05:27:33;;;;;;;;;;;20.80;67.30;;;16.40;100.00;95697.00;4991702;28;19909;-49
2023/07/13 05:29:59;;;;;;;;;;;20.80;67.30;;;16.44;100.00;95705.28;4992143;28;19975;-48
2023/07/13 05:32:25;;;;;;;;;;;20.80;67.40;;;16.46;100.00;95702.31;5002841;28;19909;-52
2023/07/13 05:34:50;;;;;;;;;;;20.80;67.40;;;16.45;100.00;95704.16;4989208;28;19932;-52
2023/07/13 05:37:16;;;;;;;;;;;20.80;67.30;;;16.41;100.00;95703.97;4992207;28;19909;-48
2023/07/13 05:39:42;;;;;;;;;;;20.80;67.30;;;16.45;100.00;95714.13;4991000;28;20280;-49
2023/07/13 05:42:07;;;;;;;;;;;20.80;67.40;;;16.43;100.00;95717.91;4992085;28;19964;-48
2023/07/13 05:44:33;;;;;;;;;;;20.80;67.50;;;16.43;100.00;95722.50;4990658;28;19916;-51
2023/07/13 05:46:59;;;;;;;;;;;20.70;67.50;;;16.43;100.00;95717.13;4994399;28;19913;-49
2023/07/13 05:49:25;;;;;;;;;;;20.80;67.50;;;16.43;100.00;95711.75;4995533;28;19909;-50
2023/07/13 05:51:50;;;;;;;;;;;20.70;67.50;;;16.41;100.00;95713.94;4994577;28;20368;-52
2023/07/13 05:54:16;;;;;;;;;;;20.70;67.30;;;16.41;100.00;95711.25;4995465;28;19916;-46
2023/07/13 05:56:42;;;;;;;;;;;20.80;67.40;;;16.43;100.00;95709.06;4994520;28;20009;-49
2023/07/13 05:59:08;;;;;;;;;;;20.80;67.40;;;16.43;100.00;95719.81;5010381;28;19956;-50
2023/07/13 06:01:34;;;;;;;;;;;20.80;67.40;;;16.45;100.00;95722.97;4993869;28;20406;-51
2023/07/13 06:03:59;;;;;;;;;;;20.80;67.40;;;16.48;100.00;95732.34;4986875;28;20012;-49
2023/07/13 06:06:25;;;;;;;;;;;20.80;67.50;;;16.49;100.00;95734.75;4995192;28;19996;-49
2023/07/13 06:08:51;;;;;;;;;;;20.80;67.50;;;16.54;100.00;95736.53;4994675;28;19916;-49
2023/07/13 06:11:24;;;;;;;;;;;20.90;67.60;;;16.53;100.00;95737.66;4995113;28;19914;-48
2023/07/13 06:13:50;;;;;;;;;;;20.90;67.60;;;16.57;100.00;95741.31;5008235;28;19925;-48
2023/07/13 06:16:17;;;;;;;;;;;20.90;67.50;;;16.52;100.00;95741.44;4995299;28;19913;-49
2023/07/13 06:18:43;;;;;;;;;;;20.90;67.60;;;16.53;100.00;95743.81;4994558;28;20426;-49
2023/07/13 06:21:16;;;;;;;;;;;20.90;67.50;;;16.50;100.00;95743.63;4991276;28;19917;-50
2023/07/13 06:23:43;;;;;;;;;;;20.90;67.50;;;16.52;100.00;95741.44;4993910;28;19956;-49
2023/07/13 06:26:09;;;;;;;;;;;20.90;67.50;;;16.56;100.00;95747.81;4988886;28;19956;-53
2023/07/13 06:28:37;;;;;;;;;;;20.90;67.50;;;16.54;100.00;95758.84;4993409;28;20008;-53
2023/07/13 06:31:07;;;;;;;;;;;20.90;67.50;;;16.56;100.00;95764.72;4993156;28;20372;-54
2023/07/13 06:33:33;;;;;;;;;;;20.90;67.60;;;16.57;100.00;95766.31;4991541;28;19909;-51
2023/07/13 06:36:03;;;;;;;;;;;20.90;67.60;;;16.57;100.00;95757.44;4975292;28;19917;-54
2023/07/13 06:38:29;;;;;;;;;;;20.90;67.60;;;16.64;100.00;95768.63;4990808;28;19909;-55
2023/07/13 06:40:55;;;;;;;;;;;21.00;67.60;;;16.70;100.00;95772.00;4994732;28;19920;-55
2023/07/13 06:43:21;;;;;;;;;;;21.00;67.60;;;16.78;100.00;95771.34;4994582;28;19910;-53
2023/07/13 06:45:49;;;;;;;;;;;21.10;67.70;;;16.84;100.00;95773.63;4993298;28;19963;-53
2023/07/13 06:48:19;;;;;;;;;;;21.20;67.80;;;16.91;100.00;95769.75;4994556;28;19909;-52
2023/07/13 06:50:48;;;;;;;;;;;21.20;67.70;;;16.96;100.00;95770.44;4993539;28;19921;-53
2023/07/13 06:53:13;;;;;;;;;;;21.40;67.60;;;17.01;100.00;95783.78;4994210;28;20395;-53
2023/07/13 06:55:40;;;;;;;;;;;21.50;67.50;;;17.09;100.00;95787.69;4994113;28;20011;-52
2023/07/13 06:58:06;;;;;;;;;;;21.60;67.40;;;17.14;100.00;95782.16;4992945;28;19909;-48
2023/07/13 07:00:32;;;;;;;;;;;21.70;67.30;;;17.18;100.00;95783.19;4994164;28;19913;-47
2023/07/13 07:02:58;;;;;;;;;;;21.70;67.30;;;17.26;100.00;95785.13;4991632;28;19917;-47
2023/07/13 07:05:23;;;;;;;;;;;21.80;67.30;;;17.28;100.00;95787.53;4980964;28;19921;-48
2023/07/13 07:07:51;;;;;;;;;;;21.90;67.30;;;17.34;100.00;95787.13;4992922;28;19909;-47
2023/07/13 07:10:18;;;;;;;;;;;21.90;67.20;;;17.42;100.00;95795.59;4994040;28;19992;-54
2023/07/13 07:12:44;;;;;;;;;;;22.00;67.20;;;17.50;100.00;95786.81;4994035;28;19913;-49
2023/07/13 07:15:10;;;;;;;;;;;22.10;67.00;;;17.59;100.00;95784.97;4992913;28;19909;-52
2023/07/13 07:17:36;;;;;;;;;;;22.20;67.00;;;17.66;100.00;95782.66;4993891;28;19917;-52
2023/07/13 07:20:04;;;;;;;;;;;22.30;67.00;;;17.74;100.00;95781.16;4992583;28;19917;-48
2023/07/13 07:22:30;;;;;;;;;;;22.30;66.90;;;17.62;100.00;95778.97;4993847;28;19913;-49
2023/07/13 07:24:57;;;;;;;;;;;22.40;66.80;;;17.76;100.00;95787.00;4993586;28;20048;-51
2023/07/13 07:27:24;;;;;;;;;;;22.60;66.70;;;17.90;100.00;95790.50;4992595;28;19917;-52
2023/07/13 07:29:50;;;;;;;;;;;22.80;66.50;;;17.98;100.00;95778.16;4993723;28;20402;-48
2023/07/13 07:32:16;;;;;;;;;;;23.00;66.20;;;18.16;100.00;95771.00;4978904;28;19909;-51
2023/07/13 07:34:42;;;;;;;;;;;23.20;66.00;;;18.24;100.00;95781.84;4992344;28;19910;-48
2023/07/13 07:37:13;;;;;;;;;;;23.30;65.80;;;18.20;100.00;95788.94;4993882;28;20395;-52
2023/07/13 07:39:38;;;;;;;;;;;23.50;65.60;;;18.34;100.00;95783.47;4992389;28;19980;-51
2023/07/13 07:42:05;;;;;;;;;;;23.60;65.50;;;18.49;100.00;95785.00;4990369;28;20328;-46
2023/07/13 07:44:32;;;;;;;;;;;23.70;65.40;;;18.56;100.00;95790.72;4989505;28;19952;-47
2023/07/13 07:46:59;;;;;;;;;;;23.90;65.30;;;18.74;100.00;95791.66;4990483;28;20004;-47
2023/07/13 07:49:25;;;;;;;;;;;24.10;66.10;;;18.93;100.00;95789.50;5005638;28;19921;-46
2023/07/13 07:51:51;;;;;;;;;;;24.20;65.20;;;19.06;100.00;95806.69;4987173;28;19909;-47
2023/07/13 07:54:17;;;;;;;;;;;24.40;65.10;;;19.13;100.00;95792.72;4977028;28;19917;-48
2023/07/13 07:56:43;;;;;;;;;;;24.60;64.80;;;19.25;100.00;95789.41;4987664;28;19966;-47
2023/07/13 07:59:09;;;;;;;;;;;24.80;64.60;;;19.42;100.00;95774.00;5003726;28;19909;-48
2023/07/13 08:01:36;;;;;;;;;;;24.90;64.30;;;19.48;100.00;95777.34;4992662;28;20329;-50
2023/07/13 08:04:02;;;;;;;;;;;25.10;64.20;;;19.57;100.00;95790.88;4991583;28;19909;-48
2023/07/13 08:06:28;;;;;;;;;;;25.30;64.00;;;19.74;100.00;95803.63;4993237;28;19909;-54
2023/07/13 08:08:55;;;;;;;;;;;25.40;63.90;;;19.69;98.91;95799.19;4989660;28;19913;-49
2023/07/13 08:11:22;;;;;;;;;;;25.40;63.70;;;19.63;97.49;95792.31;4982349;28;19910;-51
2023/07/13 08:13:49;;;;;;;;;;;25.30;63.60;;;19.56;98.08;95782.00;4991991;28;20392;-49
2023/07/13 08:16:15;;;;;;;;;;;25.30;63.50;;;19.95;97.45;95787.56;4992865;28;20287;-47
2023/07/13 08:18:41;;;;;;;;;;;25.60;63.40;;;20.27;94.06;95797.06;4992565;28;19917;-48
2023/07/13 08:21:09;;;;;;;;;;;26.10;63.30;;;20.45;89.04;95797.84;4990335;28;19925;-48
2023/07/13 08:23:35;;;;;;;;;;;26.30;63.10;;;20.70;89.29;95799.69;4989008;28;19909;-50
2023/07/13 08:26:02;;;;;;;;;;;26.60;62.90;;;20.83;88.95;95802.53;4991754;28;19910;-48
2023/07/13 08:28:29;;;;;;;;;;;26.90;62.70;;;20.80;85.44;95801.25;4992733;28;19921;-46
2023/07/13 08:30:54;;;;;;;;;;;27.00;62.40;;;20.97;87.32;95808.53;4990574;28;19914;-46
2023/07/13 08:33:25;;;;;;;;;;;27.00;62.20;;;21.07;85.36;95799.25;4985286;28;19971;-48
2023/07/13 08:35:51;;;;;;;;;;;27.10;62.20;;;21.11;84.24;95803.66;4989263;28;19952;-47
2023/07/13 08:38:18;;;;;;;;;;;27.20;62.00;;;21.15;86.63;95804.63;4989010;28;19941;-47
2023/07/13 08:40:53;;;;;;;;;;;27.30;61.60;;;21.37;86.47;95802.75;4989898;28;20421;-45
2023/07/13 08:43:33;;;;;;;;;;;27.50;61.50;;;21.47;84.59;95800.47;4988368;28;20400;-47
2023/07/13 08:46:25;;;;;;;;;;;27.80;61.00;;;21.91;85.36;95800.94;4994032;28;19996;-45
2023/07/13 08:49:01;;;;;;;;;;;28.20;60.80;;;22.09;81.07;95800.78;4988674;28;20991;-47
2023/07/13 08:52:00;;;;;;;;;;;28.60;60.70;;;22.45;78.54;95808.31;4998942;28;19917;-49
2023/07/13 08:54:34;;;;;;;;;;;28.80;60.50;;;22.64;70.57;95797.72;4981703;28;19910;-49
2023/07/13 08:57:19;;;;;;;;;;;29.00;60.40;;;22.93;72.08;95797.88;4990083;28;19913;-49
2023/07/13 08:59:46;;;;;;;;;;;29.30;60.10;;;23.26;71.02;95800.50;4992369;28;19909;-49
2023/07/13 09:02:18;;;;;;;;;;;29.60;60.60;;;23.64;68.17;95805.56;4988558;28;19922;-48
2023/07/13 09:05:01;;;;;;;;;;;30.10;59.60;;;23.97;62.25;95805.41;4986232;28;19913;-49
2023/07/13 09:07:38;;;;;;;;;;;30.60;59.20;;;24.03;64.21;95800.50;4981684;28;19944;-48
2023/07/13 09:10:53;;;;;;;;;;;31.10;58.60;;;23.93;65.15;95809.16;4987413;28;19913;-47
2023/07/13 09:13:58;;;;;;;;;;;31.50;58.00;;;23.97;61.95;95807.31;4971412;28;19916;-51
2023/07/13 09:16:25;;;;;;;;;;;31.90;57.30;;;24.36;62.74;95802.19;4986110;28;19970;-47
2023/07/13 09:18:59;;;;;;;;;;;32.20;56.80;;;24.90;62.77;95809.84;4989330;28;20288;-51
2023/07/13 09:21:42;;;;;;;;;;;32.60;56.30;;;25.20;56.32;95798.53;4987114;28;19914;-49
2023/07/13 09:24:38;;;;;;;;;;;32.90;55.90;;;25.46;56.93;95798.75;5006895;28;19909;-49
2023/07/13 09:27:21;;;;;;;;;;;33.40;54.90;;;25.94;60.39;95793.94;4977426;28;19913;-49
2023/07/13 09:30:15;;;;;;;;;;;33.80;54.40;;;26.58;55.89;95789.00;5005284;28;19914;-53
2023/07/13 09:32:52;;;;;;;;;;;34.20;54.30;;;26.73;52.54;95801.75;4976418;28;20439;-49
2023/07/13 09:35:27;;;;;;;;;;;34.30;53.90;;;26.63;52.99;95804.28;4995729;28;20284;-53
2023/07/13 09:38:04;;;;;;;;;;;34.10;53.40;;;26.11;52.26;95800.16;5009007;28;19909;-52
2023/07/13 09:41:23;;;;;;;;;;;33.90;52.20;;;26.21;52.48;95805.03;4995715;28;19913;-50
2023/07/13 09:44:30;;;;;;;;;;;33.60;51.90;;;26.19;54.65;95807.31;4978367;28;20291;-50
2023/07/13 09:46:56;;;;;;;;;;;33.50;51.80;;;25.91;55.55;95805.59;4989556;28;20393;-52
2023/07/13 09:49:32;;;;;;;;;;;33.30;51.70;;;25.75;55.56;95813.00;4957841;28;20416;-49
2023/07/13 09:52:03;;;;;;;;;;;33.10;51.70;;;25.60;55.88;95807.25;4980338;28;19914;-51
2023/07/13 09:54:36;;;;;;;;;;;32.80;51.70;;;25.37;55.26;95804.38;4994297;28;19913;-49
2023/07/13 09:57:18;;;;;;;;;;;32.50;51.70;;;25.42;55.92;95808.78;5002128;28;19913;-48
2023/07/13 09:59:47;;;;;;;;;;;32.10;51.80;;;25.21;59.18;95802.81;4995813;28;19913;-53
2023/07/13 10:02:39;;;;;;;;;;;31.60;51.90;;;24.90;57.93;95818.78;4994429;28;20300;-47
2023/07/13 10:05:15;;;;;;;;;;;31.20;52.10;;;24.34;60.42;95816.13;4991674;28;19963;-44
2023/07/13 10:07:44;;;;;;;;;;;30.70;52.00;;;24.16;64.25;95815.66;4995463;28;19962;-44
2023/07/13 10:10:22;;;;;;;;;;;30.20;52.10;;;23.88;68.34;95810.19;4994987;28;19943;-45
2023/07/13 10:12:50;;;;;;;;;;;29.80;52.40;;;23.56;68.64;95818.13;4994987;28;20356;-48
2023/07/13 10:15:25;;;;;;;;;;;29.30;52.50;;;23.05;67.25;95816.91;4993824;28;19962;-45
2023/07/13 10:17:54;;;;;;;;;;;28.90;52.70;;;22.97;72.57;95821.34;4993857;28;19914;-45
2023/07/13 10:20:21;;;;;;;;;;;28.60;53.00;;;22.83;72.37;95824.31;4994235;28;19914;-45
2023/07/13 10:23:05;;;;;;;;;;;28.20;53.10;;;22.63;73.27;95823.28;4982616;28;19964;-44
2023/07/13 10:25:42;;;;;;;;;;;28.00;53.30;;;22.37;77.68;95820.03;4990074;28;19916;-47
2023/07/13 10:28:25;;;;;;;;;;;27.80;53.40;;;22.21;75.75;95819.84;4993038;28;20007;-47
2023/07/13 10:30:56;;;;;;;;;;;27.80;53.50;;;22.19;73.81;95824.84;4994919;28;19909;-43
2023/07/13 10:33:23;;;;;;;;;;;27.80;53.40;;;22.26;74.56;95819.66;4987876;28;19910;-45
2023/07/13 10:36:02;;;;;;;;;;;28.00;53.40;;;22.34;73.22;95817.97;4990861;28;21091;-44
2023/07/13 10:38:29;;;;;;;;;;;28.20;53.20;;;22.49;72.22;95822.00;4993797;28;19913;-47
2023/07/13 10:41:03;;;;;;;;;;;28.50;53.00;;;22.54;69.61;95824.50;4994803;28;19913;-44
2023/07/13 10:43:50;;;;;;;;;;;28.70;52.80;;;22.81;72.15;95828.50;4994256;28;20025;-45
2023/07/13 10:46:22;;;;;;;;;;;29.00;52.60;;;23.05;68.95;95814.19;4993685;28;19913;-46
2023/07/13 10:48:54;;;;;;;;;;;29.20;52.40;;;23.12;67.58;95816.34;5009354;28;19913;-45
2023/07/13 10:51:22;;;;;;;;;;;29.40;52.30;;;23.20;64.69;95820.91;4988977;28;19910;-45
2023/07/13 10:54:16;;;;;;;;;;;29.70;51.80;;;23.49;65.96;95823.34;4987664;28;19972;-44
2023/07/13 10:56:43;;;;;;;;;;;30.00;51.60;;;23.61;64.59;95822.56;4987964;28;19956;-44
2023/07/13 10:59:09;;;;;;;;;;;30.30;51.20;;;24.02;65.06;95816.03;4994300;28;19917;-46
2023/07/13 11:01:57;;;;;;;;;;;30.70;50.90;;;24.23;61.31;95820.50;4994069;28;19917;-44
2023/07/13 11:04:27;;;;;;;;;;;31.10;50.70;;;24.38;62.24;95817.03;4994328;28;19909;-47
2023/07/13 11:07:27;;;;;;;;;;;31.30;50.40;;;24.48;60.25;95813.03;4992944;28;19917;-45
2023/07/13 11:09:57;;;;;;;;;;;31.80;49.60;;;25.01;64.22;95813.63;4993557;28;19916;-45
2023/07/13 11:12:23;;;;;;;;;;;32.20;49.20;;;25.14;59.02;95812.41;5009143;28;19909;-44
2023/07/13 11:14:54;;;;;;;;;;;32.70;49.20;;;25.74;59.50;95811.44;4990674;28;20396;-45
2023/07/13 11:17:32;;;;;;;;;;;33.40;48.60;;;25.83;53.73;95812.06;4991040;28;20414;-46
2023/07/13 11:20:13;;;;;;;;;;;33.60;48.30;;;26.02;56.92;95809.34;4992081;28;19953;-49
2023/07/13 11:23:12;;;;;;;;;;;33.90;48.10;;;26.39;56.64;95803.44;4980954;28;19909;-50